sensor_id;sensor_type;location;lat;lon;timestamp;pressure;altitude;pressure_sealevel;temperature;humidity
6393;BME280;3229;42.674;23.282;2023-04-06T00:00:09;94369.16;;;6.49;52.90
6393;BME280;3229;42.674;23.282;2023-04-06T00:02:37;94359.09;;;6.47;52.95
6393;BME280;3229;42.674;23.282;2023-04-06T00:05:04;94356.47;;;6.49;52.86
6393;BME280;3229;42.674;23.282;2023-04-06T00:07:31;94345.72;;;6.45;52.71
6393;BME280;3229;42.674;23.282;2023-04-06T00:09:59;94355.66;;;6.48;52.87
6393;BME280;3229;42.674;23.282;2023-04-06T00:12:26;94342.25;;;6.46;53.03
6393;BME280;3229;42.674;23.282;2023-04-06T00:14:53;94336.25;;;6.47;52.95
6393;BME280;3229;42.674;23.282;2023-04-06T00:17:21;94339.72;;;6.46;52.93
6393;BME280;3229;42.674;23.282;2023-04-06T00:19:48;94343.19;;;6.45;53.01
6393;BME280;3229;42.674;23.282;2023-04-06T00:22:15;94325.53;;;6.44;52.88
6393;BME280;3229;42.674;23.282;2023-04-06T00:24:42;94313.44;;;6.36;52.87
6393;BME280;3229;42.674;23.282;2023-04-06T00:27:09;94327.28;;;6.43;53.06
6393;BME280;3229;42.674;23.282;2023-04-06T00:29:35;94326.34;;;6.44;53.04
6393;BME280;3229;42.674;23.282;2023-04-06T00:32:04;94330.63;;;6.44;53.05
6393;BME280;3229;42.674;23.282;2023-04-06T00:34:32;94317.47;;;6.39;52.95
6393;BME280;3229;42.674;23.282;2023-04-06T00:36:59;94325.53;;;6.44;52.80
6393;BME280;3229;42.674;23.282;2023-04-06T00:39:26;94319.53;;;6.45;52.99
6393;BME280;3229;42.674;23.282;2023-04-06T00:41:53;94321.13;;;6.46;52.82
6393;BME280;3229;42.674;23.282;2023-04-06T00:44:20;94328.75;;;6.46;52.97
6393;BME280;3229;42.674;23.282;2023-04-06T00:46:48;94321.13;;;6.46;52.93
6393;BME280;3229;42.674;23.282;2023-04-06T00:49:15;94323.53;;;6.47;53.02
6393;BME280;3229;42.674;23.282;2023-04-06T00:51:43;94310.31;;;6.44;52.86
6393;BME280;3229;42.674;23.282;2023-04-06T00:54:10;94308.13;;;6.39;52.83
6393;BME280;3229;42.674;23.282;2023-04-06T00:56:37;94316.63;;;6.49;52.83
6393;BME280;3229;42.674;23.282;2023-04-06T00:59:04;94315.69;;;6.50;52.77
6393;BME280;3229;42.674;23.282;2023-04-06T01:01:31;94240.53;;;5.95;52.83
6393;BME280;3229;42.674;23.282;2023-04-06T01:03:58;94318.66;;;6.56;52.85
6393;BME280;3229;42.674;23.282;2023-04-06T01:06:25;94314.28;;;6.58;52.94
6393;BME280;3229;42.674;23.282;2023-04-06T01:08:54;94314.94;;;6.60;52.86
6393;BME280;3229;42.674;23.282;2023-04-06T01:11:21;94314.84;;;6.61;52.82
6393;BME280;3229;42.674;23.282;2023-04-06T01:13:48;94317.13;;;6.64;52.68
6393;BME280;3229;42.674;23.282;2023-04-06T01:16:15;94308.59;;;6.65;52.66
6393;BME280;3229;42.674;23.282;2023-04-06T01:18:42;94299.47;;;6.63;52.62
6393;BME280;3229;42.674;23.282;2023-04-06T01:21:09;94304.75;;;6.71;52.81
6393;BME280;3229;42.674;23.282;2023-04-06T01:23:44;94306.09;;;6.75;52.53
6393;BME280;3229;42.674;23.282;2023-04-06T01:26:11;94303.44;;;6.76;52.73
6393;BME280;3229;42.674;23.282;2023-04-06T01:28:38;94300.22;;;6.74;52.61
6393;BME280;3229;42.674;23.282;2023-04-06T01:31:08;94307.47;;;6.79;52.49
6393;BME280;3229;42.674;23.282;2023-04-06T01:33:35;94306.16;;;6.85;52.44
6393;BME280;3229;42.674;23.282;2023-04-06T01:36:02;94303.47;;;6.86;52.40
6393;BME280;3229;42.674;23.282;2023-04-06T01:38:29;94258.97;;;6.61;52.57
6393;BME280;3229;42.674;23.282;2023-04-06T01:40:57;94294.56;;;6.92;52.46
6393;BME280;3229;42.674;23.282;2023-04-06T01:43:24;94293.63;;;6.93;52.25
6393;BME280;3229;42.674;23.282;2023-04-06T01:45:51;94291.75;;;6.95;52.47
6393;BME280;3229;42.674;23.282;2023-04-06T01:48:18;94249.66;;;6.71;52.28
6393;BME280;3229;42.674;23.282;2023-04-06T01:50:45;94289.22;;;6.95;52.32
6393;BME280;3229;42.674;23.282;2023-04-06T01:53:12;94296.50;;;6.99;52.30
6393;BME280;3229;42.674;23.282;2023-04-06T01:55:39;94286.31;;;6.99;52.36
6393;BME280;3229;42.674;23.282;2023-04-06T01:58:08;94279.59;;;6.98;52.21
6393;BME280;3229;42.674;23.282;2023-04-06T02:00:34;94280.31;;;7.00;52.20
6393;BME280;3229;42.674;23.282;2023-04-06T02:03:01;94282.47;;;7.05;52.11
6393;BME280;3229;42.674;23.282;2023-04-06T02:05:30;94283.13;;;7.07;52.21
6393;BME280;3229;42.674;23.282;2023-04-06T02:07:58;94283.13;;;7.07;52.13
6393;BME280;3229;42.674;23.282;2023-04-06T02:10:25;94283.03;;;7.09;52.16
6393;BME280;3229;42.674;23.282;2023-04-06T02:12:52;94277.81;;;7.10;52.17
6393;BME280;3229;42.674;23.282;2023-04-06T02:15:20;94194.09;;;6.57;51.95
6393;BME280;3229;42.674;23.282;2023-04-06T02:17:47;94280.09;;;7.13;52.16
6393;BME280;3229;42.674;23.282;2023-04-06T02:20:14;94276.75;;;7.13;52.39
6393;BME280;3229;42.674;23.282;2023-04-06T02:22:41;94282.50;;;7.15;52.01
6393;BME280;3229;42.674;23.282;2023-04-06T02:25:08;94277.28;;;7.16;51.91
6393;BME280;3229;42.674;23.282;2023-04-06T02:27:35;94269.25;;;7.11;51.88
6393;BME280;3229;42.674;23.282;2023-04-06T02:30:02;94280.53;;;7.18;52.14
6393;BME280;3229;42.674;23.282;2023-04-06T02:32:30;94277.19;;;7.18;52.09
6393;BME280;3229;42.674;23.282;2023-04-06T02:34:57;94282.13;;;7.19;52.07
6393;BME280;3229;42.674;23.282;2023-04-06T02:37:24;94275.69;;;7.15;51.98
6393;BME280;3229;42.674;23.282;2023-04-06T02:39:51;94200.00;;;6.67;51.88
6393;BME280;3229;42.674;23.282;2023-04-06T02:42:18;94276.00;;;7.22;51.86
6393;BME280;3229;42.674;23.282;2023-04-06T02:44:45;94279.34;;;7.22;51.81
6393;BME280;3229;42.674;23.282;2023-04-06T02:47:12;94283.47;;;7.23;52.03
6393;BME280;3229;42.674;23.282;2023-04-06T02:49:40;94184.63;;;6.69;51.89
6393;BME280;3229;42.674;23.282;2023-04-06T02:52:07;94194.41;;;6.73;51.99
6393;BME280;3229;42.674;23.282;2023-04-06T02:54:34;94271.47;;;7.25;51.91
6393;BME280;3229;42.674;23.282;2023-04-06T02:57:00;94274.25;;;7.22;52.01
6393;BME280;3229;42.674;23.282;2023-04-06T02:59:27;94275.84;;;7.23;51.87
6393;BME280;3229;42.674;23.282;2023-04-06T03:01:54;94280.81;;;7.25;52.00
6393;BME280;3229;42.674;23.282;2023-04-06T03:04:21;94278.41;;;7.23;51.94
6393;BME280;3229;42.674;23.282;2023-04-06T03:06:53;94275.84;;;7.23;51.88
6393;BME280;3229;42.674;23.282;2023-04-06T03:09:20;94279.75;;;7.27;51.89
6393;BME280;3229;42.674;23.282;2023-04-06T03:11:48;94278.00;;;7.28;51.85
6393;BME280;3229;42.674;23.282;2023-04-06T03:14:14;94280.69;;;7.26;51.89
6393;BME280;3229;42.674;23.282;2023-04-06T03:16:42;94277.22;;;7.27;51.84
6393;BME280;3229;42.674;23.282;2023-04-06T03:19:09;94276.41;;;7.27;51.99
6393;BME280;3229;42.674;23.282;2023-04-06T03:21:36;94285.63;;;7.28;51.94
6393;BME280;3229;42.674;23.282;2023-04-06T03:24:06;94282.16;;;7.29;51.82
6393;BME280;3229;42.674;23.282;2023-04-06T03:26:33;94280.41;;;7.29;51.89
6393;BME280;3229;42.674;23.282;2023-04-06T03:29:00;94281.25;;;7.30;51.92
6393;BME280;3229;42.674;23.282;2023-04-06T03:31:27;94277.75;;;7.31;51.89
6393;BME280;3229;42.674;23.282;2023-04-06T03:33:54;94269.72;;;7.26;51.89
6393;BME280;3229;42.674;23.282;2023-04-06T03:36:21;94259.94;;;7.21;51.90
6393;BME280;3229;42.674;23.282;2023-04-06T03:38:47;94273.34;;;7.33;52.00
6393;BME280;3229;42.674;23.282;2023-04-06T03:41:16;94275.88;;;7.33;51.91
6393;BME280;3229;42.674;23.282;2023-04-06T03:43:43;94270.13;;;7.31;51.81
6393;BME280;3229;42.674;23.282;2023-04-06T03:46:10;94270.00;;;7.33;51.82
6393;BME280;3229;42.674;23.282;2023-04-06T03:48:37;94269.19;;;7.32;51.85
6393;BME280;3229;42.674;23.282;2023-04-06T03:51:04;94274.28;;;7.32;51.82
6393;BME280;3229;42.674;23.282;2023-04-06T03:53:31;94274.13;;;7.34;51.78
6393;BME280;3229;42.674;23.282;2023-04-06T03:55:57;94273.22;;;7.35;51.83
6393;BME280;3229;42.674;23.282;2023-04-06T03:58:26;94265.47;;;7.36;51.71
6393;BME280;3229;42.674;23.282;2023-04-06T04:00:53;94270.53;;;7.36;51.87
6393;BME280;3229;42.674;23.282;2023-04-06T04:03:20;94262.91;;;7.36;51.79
6393;BME280;3229;42.674;23.282;2023-04-06T04:05:48;94277.00;;;7.40;51.87
6393;BME280;3229;42.674;23.282;2023-04-06T04:08:16;94266.81;;;7.40;51.73
6393;BME280;3229;42.674;23.282;2023-04-06T04:10:43;94265.59;;;7.35;51.79
6393;BME280;3229;42.674;23.282;2023-04-06T04:13:10;94276.03;;;7.41;51.71
6393;BME280;3229;42.674;23.282;2023-04-06T04:15:38;94263.97;;;7.34;51.67
6393;BME280;3229;42.674;23.282;2023-04-06T04:18:05;94275.09;;;7.42;51.75
6393;BME280;3229;42.674;23.282;2023-04-06T04:20:32;94276.59;;;7.45;51.66
6393;BME280;3229;42.674;23.282;2023-04-06T04:22:59;94269.91;;;7.44;51.62
6393;BME280;3229;42.674;23.282;2023-04-06T04:25:26;94279.00;;;7.46;51.72
6393;BME280;3229;42.674;23.282;2023-04-06T04:27:53;94274.63;;;7.48;51.57
6393;BME280;3229;42.674;23.282;2023-04-06T04:30:20;94273.53;;;7.51;51.51
6393;BME280;3229;42.674;23.282;2023-04-06T04:32:48;94276.91;;;7.51;51.67
6393;BME280;3229;42.674;23.282;2023-04-06T04:35:15;94262.28;;;7.44;51.50
6393;BME280;3229;42.674;23.282;2023-04-06T04:37:42;94275.81;;;7.54;51.42
6393;BME280;3229;42.674;23.282;2023-04-06T04:40:10;94273.53;;;7.51;51.22
6393;BME280;3229;42.674;23.282;2023-04-06T04:42:37;94274.06;;;7.54;51.50
6393;BME280;3229;42.674;23.282;2023-04-06T04:45:04;94276.22;;;7.59;51.33
6393;BME280;3229;42.674;23.282;2023-04-06T04:47:31;94279.47;;;7.61;51.35
6393;BME280;3229;42.674;23.282;2023-04-06T04:50:00;94265.53;;;7.56;51.32
6393;BME280;3229;42.674;23.282;2023-04-06T04:52:26;94269.69;;;7.66;51.28
6393;BME280;3229;42.674;23.282;2023-04-06T04:54:53;94275.44;;;7.68;51.10
6393;BME280;3229;42.674;23.282;2023-04-06T04:57:20;94272.66;;;7.71;51.42
6393;BME280;3229;42.674;23.282;2023-04-06T04:59:47;94271.72;;;7.72;51.20
6393;BME280;3229;42.674;23.282;2023-04-06T05:02:15;94270.50;;;7.76;51.13
6393;BME280;3229;42.674;23.282;2023-04-06T05:04:42;94278.69;;;7.80;51.19
6393;BME280;3229;42.674;23.282;2023-04-06T05:07:11;94272.56;;;7.83;51.19
6393;BME280;3229;42.674;23.282;2023-04-06T05:09:44;94269.78;;;8.34;88.62
6393;BME280;3229;42.674;23.282;2023-04-06T05:12:11;94260.50;;;9.28;89.14
6393;BME280;3229;42.674;23.282;2023-04-06T05:14:38;94257.28;;;10.17;84.31
6393;BME280;3229;42.674;23.282;2023-04-06T05:17:05;94248.31;;;10.93;78.90
6393;BME280;3229;42.674;23.282;2023-04-06T05:19:32;94258.41;;;11.63;75.08
6393;BME280;3229;42.674;23.282;2023-04-06T05:21:59;94271.41;;;12.20;72.48
6393;BME280;3229;42.674;23.282;2023-04-06T05:24:27;94244.81;;;12.37;70.18
6393;BME280;3229;42.674;23.282;2023-04-06T05:26:54;94273.06;;;12.62;67.96
6393;BME280;3229;42.674;23.282;2023-04-06T05:29:21;94266.31;;;12.52;64.76
6393;BME280;3229;42.674;23.282;2023-04-06T05:31:48;94269.34;;;12.40;61.72
6393;BME280;3229;42.674;23.282;2023-04-06T05:34:15;94272.53;;;12.25;59.99
6393;BME280;3229;42.674;23.282;2023-04-06T05:36:42;94270.59;;;12.11;58.54
6393;BME280;3229;42.674;23.282;2023-04-06T05:39:09;94266.88;;;11.97;57.86
6393;BME280;3229;42.674;23.282;2023-04-06T05:41:39;94265.72;;;11.84;57.02
6393;BME280;3229;42.674;23.282;2023-04-06T05:44:05;94261.94;;;11.70;56.25
6393;BME280;3229;42.674;23.282;2023-04-06T05:46:32;94252.59;;;11.52;55.66
6393;BME280;3229;42.674;23.282;2023-04-06T05:48:59;94258.34;;;11.46;55.34
6393;BME280;3229;42.674;23.282;2023-04-06T05:51:26;94265.34;;;11.36;54.84
6393;BME280;3229;42.674;23.282;2023-04-06T05:53:53;94261.28;;;11.25;54.54
6393;BME280;3229;42.674;23.282;2023-04-06T05:56:20;94270.84;;;11.15;54.23
6393;BME280;3229;42.674;23.282;2023-04-06T05:58:48;94261.66;;;11.04;54.01
6393;BME280;3229;42.674;23.282;2023-04-06T06:01:15;94257.31;;;10.97;53.79
6393;BME280;3229;42.674;23.282;2023-04-06T06:03:42;94256.81;;;10.93;53.49
6393;BME280;3229;42.674;23.282;2023-04-06T06:06:09;94251.19;;;10.90;53.20
6393;BME280;3229;42.674;23.282;2023-04-06T06:08:36;94249.72;;;10.87;53.09
6393;BME280;3229;42.674;23.282;2023-04-06T06:11:03;94248.28;;;10.85;52.52
6393;BME280;3229;42.674;23.282;2023-04-06T06:13:29;94248.41;;;10.83;52.36
6393;BME280;3229;42.674;23.282;2023-04-06T06:15:58;94255.16;;;10.84;52.25
6393;BME280;3229;42.674;23.282;2023-04-06T06:18:25;94245.72;;;10.85;52.00
6393;BME280;3229;42.674;23.282;2023-04-06T06:20:51;94253.13;;;10.96;51.87
6393;BME280;3229;42.674;23.282;2023-04-06T06:23:19;94253.16;;;11.04;51.47
6393;BME280;3229;42.674;23.282;2023-04-06T06:25:46;94249.25;;;11.18;51.11
6393;BME280;3229;42.674;23.282;2023-04-06T06:28:13;94250.78;;;11.37;50.68
6393;BME280;3229;42.674;23.282;2023-04-06T06:30:40;94252.81;;;11.59;50.41
6393;BME280;3229;42.674;23.282;2023-04-06T06:33:08;94251.72;;;11.78;50.39
6393;BME280;3229;42.674;23.282;2023-04-06T06:35:35;94259.81;;;11.91;50.00
6393;BME280;3229;42.674;23.282;2023-04-06T06:38:02;94264.66;;;12.02;49.85
6393;BME280;3229;42.674;23.282;2023-04-06T06:40:29;94260.63;;;12.08;49.85
6393;BME280;3229;42.674;23.282;2023-04-06T06:42:56;94260.34;;;12.19;49.76
6393;BME280;3229;42.674;23.282;2023-04-06T06:45:23;94259.09;;;12.32;49.45
6393;BME280;3229;42.674;23.282;2023-04-06T06:47:50;94257.34;;;12.40;49.39
6393;BME280;3229;42.674;23.282;2023-04-06T06:50:19;94258.28;;;12.55;48.98
6393;BME280;3229;42.674;23.282;2023-04-06T06:52:46;94267.09;;;12.77;48.74
6393;BME280;3229;42.674;23.282;2023-04-06T06:55:13;94270.31;;;12.96;48.54
6393;BME280;3229;42.674;23.282;2023-04-06T06:57:40;94252.28;;;13.12;48.27
6393;BME280;3229;42.674;23.282;2023-04-06T07:00:08;94257.91;;;13.32;48.08
6393;BME280;3229;42.674;23.282;2023-04-06T07:02:36;94250.78;;;13.50;47.97
6393;BME280;3229;42.674;23.282;2023-04-06T07:05:03;94255.16;;;13.73;47.71
6393;BME280;3229;42.674;23.282;2023-04-06T07:07:35;94240.78;;;13.95;47.25
6393;BME280;3229;42.674;23.282;2023-04-06T07:10:06;94250.63;;;14.37;47.22
6393;BME280;3229;42.674;23.282;2023-04-06T07:12:35;94249.50;;;14.63;47.11
6393;BME280;3229;42.674;23.282;2023-04-06T07:15:02;94256.56;;;14.84;46.88
6393;BME280;3229;42.674;23.282;2023-04-06T07:17:29;94248.72;;;15.00;46.96
6393;BME280;3229;42.674;23.282;2023-04-06T07:19:56;94258.94;;;15.08;46.68
6393;BME280;3229;42.674;23.282;2023-04-06T07:22:22;94254.16;;;15.20;46.44
6393;BME280;3229;42.674;23.282;2023-04-06T07:24:51;94251.38;;;15.36;46.08
6393;BME280;3229;42.674;23.282;2023-04-06T07:27:18;94253.53;;;15.47;46.01
6393;BME280;3229;42.674;23.282;2023-04-06T07:29:45;94249.63;;;15.66;45.53
6393;BME280;3229;42.674;23.282;2023-04-06T07:32:12;94255.56;;;15.82;45.34
6393;BME280;3229;42.674;23.282;2023-04-06T07:34:39;94183.75;;;15.49;44.97
6393;BME280;3229;42.674;23.282;2023-04-06T07:37:06;94260.72;;;16.18;44.93
6393;BME280;3229;42.674;23.282;2023-04-06T07:39:33;94250.56;;;16.52;44.39
6393;BME280;3229;42.674;23.282;2023-04-06T07:42:02;94250.63;;;17.09;44.42
6393;BME280;3229;42.674;23.282;2023-04-06T07:44:29;94247.66;;;17.74;44.54
6393;BME280;3229;42.674;23.282;2023-04-06T07:46:56;94246.06;;;18.41;44.57
6393;BME280;3229;42.674;23.282;2023-04-06T07:49:23;94253.50;;;19.11;44.71
6393;BME280;3229;42.674;23.282;2023-04-06T07:51:50;94242.25;;;19.63;44.01
6393;BME280;3229;42.674;23.282;2023-04-06T07:54:17;94247.19;;;20.23;44.10
6393;BME280;3229;42.674;23.282;2023-04-06T07:56:44;94251.13;;;20.70;43.80
6393;BME280;3229;42.674;23.282;2023-04-06T07:59:12;94254.47;;;21.02;43.29
6393;BME280;3229;42.674;23.282;2023-04-06T08:01:39;94250.59;;;21.37;42.99
6393;BME280;3229;42.674;23.282;2023-04-06T08:04:06;94252.81;;;21.76;42.75
6393;BME280;3229;42.674;23.282;2023-04-06T08:06:33;94250.31;;;22.18;42.39
6393;BME280;3229;42.674;23.282;2023-04-06T08:09:00;94245.31;;;22.35;42.34
6393;BME280;3229;42.674;23.282;2023-04-06T08:11:27;94253.59;;;22.44;41.99
6393;BME280;3229;42.674;23.282;2023-04-06T08:13:54;94250.69;;;22.52;41.97
6393;BME280;3229;42.674;23.282;2023-04-06T08:16:23;94252.97;;;22.60;41.69
6393;BME280;3229;42.674;23.282;2023-04-06T08:18:50;94258.22;;;22.72;41.59
6393;BME280;3229;42.674;23.282;2023-04-06T08:21:17;94255.41;;;22.85;41.52
6393;BME280;3229;42.674;23.282;2023-04-06T08:23:44;94252.63;;;22.98;41.05
6393;BME280;3229;42.674;23.282;2023-04-06T08:26:12;94261.13;;;23.06;40.99
6393;BME280;3229;42.674;23.282;2023-04-06T08:28:38;94258.19;;;23.02;40.69
6393;BME280;3229;42.674;23.282;2023-04-06T08:31:05;94262.28;;;22.98;40.37
6393;BME280;3229;42.674;23.282;2023-04-06T08:33:34;94230.53;;;22.71;39.94
6393;BME280;3229;42.674;23.282;2023-04-06T08:36:08;94266.00;;;22.90;39.82
6393;BME280;3229;42.674;23.282;2023-04-06T08:38:35;94260.84;;;22.84;39.77
6393;BME280;3229;42.674;23.282;2023-04-06T08:41:07;94264.44;;;22.71;39.08
6393;BME280;3229;42.674;23.282;2023-04-06T08:43:40;94267.03;;;22.59;38.85
6393;BME280;3229;42.674;23.282;2023-04-06T08:46:08;94253.53;;;22.50;38.54
6393;BME280;3229;42.674;23.282;2023-04-06T08:48:38;94263.00;;;22.45;38.06
6393;BME280;3229;42.674;23.282;2023-04-06T08:51:05;94276.97;;;22.50;38.09
6393;BME280;3229;42.674;23.282;2023-04-06T08:53:32;94262.69;;;22.53;38.02
6393;BME280;3229;42.674;23.282;2023-04-06T08:56:00;94254.44;;;22.56;37.83
6393;BME280;3229;42.674;23.282;2023-04-06T08:58:31;94265.56;;;22.63;37.80
6393;BME280;3229;42.674;23.282;2023-04-06T09:00:59;94263.66;;;22.70;37.51
6393;BME280;3229;42.674;23.282;2023-04-06T09:03:28;94259.25;;;22.83;37.37
6393;BME280;3229;42.674;23.282;2023-04-06T09:05:58;94250.75;;;22.75;37.34
6393;BME280;3229;42.674;23.282;2023-04-06T09:08:25;94250.44;;;22.53;37.44
6393;BME280;3229;42.674;23.282;2023-04-06T09:10:52;94248.00;;;22.28;37.25
6393;BME280;3229;42.674;23.282;2023-04-06T09:13:19;94253.16;;;22.17;37.06
6393;BME280;3229;42.674;23.282;2023-04-06T09:15:46;94253.81;;;21.94;36.98
6393;BME280;3229;42.674;23.282;2023-04-06T09:18:14;94254.09;;;21.67;36.92
6393;BME280;3229;42.674;23.282;2023-04-06T09:21:00;94255.63;;;21.38;36.83
6393;BME280;3229;42.674;23.282;2023-04-06T09:23:27;94257.34;;;21.19;36.95
6393;BME280;3229;42.674;23.282;2023-04-06T09:26:05;94264.88;;;21.02;36.81
6393;BME280;3229;42.674;23.282;2023-04-06T09:28:42;94250.03;;;20.85;36.92
6393;BME280;3229;42.674;23.282;2023-04-06T09:31:09;94252.53;;;20.73;36.88
6393;BME280;3229;42.674;23.282;2023-04-06T09:33:37;94260.63;;;20.58;36.85
6393;BME280;3229;42.674;23.282;2023-04-06T09:36:06;94253.28;;;20.42;37.16
6393;BME280;3229;42.674;23.282;2023-04-06T09:38:36;94254.38;;;20.27;37.17
6393;BME280;3229;42.674;23.282;2023-04-06T09:41:03;94249.03;;;20.16;37.12
6393;BME280;3229;42.674;23.282;2023-04-06T09:43:30;94249.47;;;20.06;37.03
6393;BME280;3229;42.674;23.282;2023-04-06T09:45:59;94252.91;;;20.00;37.02
6393;BME280;3229;42.674;23.282;2023-04-06T09:48:31;94236.34;;;20.01;37.40
6393;BME280;3229;42.674;23.282;2023-04-06T09:51:06;94238.09;;;20.07;36.79
6393;BME280;3229;42.674;23.282;2023-04-06T09:53:35;94242.66;;;20.12;36.58
6393;BME280;3229;42.674;23.282;2023-04-06T09:56:07;94248.25;;;20.15;36.61
6393;BME280;3229;42.674;23.282;2023-04-06T09:58:40;94240.50;;;20.09;36.50
6393;BME280;3229;42.674;23.282;2023-04-06T10:01:12;94236.88;;;20.10;36.41
6393;BME280;3229;42.674;23.282;2023-04-06T10:03:45;94241.47;;;20.08;36.29
6393;BME280;3229;42.674;23.282;2023-04-06T10:06:20;94246.88;;;20.13;36.29
6393;BME280;3229;42.674;23.282;2023-04-06T10:08:49;94224.78;;;19.97;36.04
6393;BME280;3229;42.674;23.282;2023-04-06T10:11:20;94242.50;;;20.07;36.04
6393;BME280;3229;42.674;23.282;2023-04-06T10:13:47;94236.72;;;20.04;36.23
6393;BME280;3229;42.674;23.282;2023-04-06T10:16:15;94236.13;;;20.02;36.09
6393;BME280;3229;42.674;23.282;2023-04-06T10:18:46;94239.94;;;19.93;35.97
6393;BME280;3229;42.674;23.282;2023-04-06T10:21:19;94226.81;;;19.82;36.11
6393;BME280;3229;42.674;23.282;2023-04-06T10:23:48;94231.66;;;19.71;36.19
6393;BME280;3229;42.674;23.282;2023-04-06T10:26:20;94228.28;;;19.58;36.24
6393;BME280;3229;42.674;23.282;2023-04-06T10:28:48;94223.94;;;19.45;36.46
6393;BME280;3229;42.674;23.282;2023-04-06T10:31:24;94195.47;;;19.18;36.42
6393;BME280;3229;42.674;23.282;2023-04-06T10:33:54;94224.53;;;19.34;36.26
6393;BME280;3229;42.674;23.282;2023-04-06T10:36:24;94214.16;;;19.34;36.12
6393;BME280;3229;42.674;23.282;2023-04-06T10:38:56;94213.78;;;19.43;35.86
6393;BME280;3229;42.674;23.282;2023-04-06T10:41:31;94220.72;;;19.49;35.93
6393;BME280;3229;42.674;23.282;2023-04-06T10:43:59;94212.75;;;19.44;36.00
6393;BME280;3229;42.674;23.282;2023-04-06T10:46:29;94200.22;;;19.28;36.00
6393;BME280;3229;42.674;23.282;2023-04-06T10:48:56;94192.09;;;19.18;35.97
6393;BME280;3229;42.674;23.282;2023-04-06T10:51:28;94213.41;;;19.26;36.08
6393;BME280;3229;42.674;23.282;2023-04-06T10:53:56;94217.81;;;19.19;36.02
6393;BME280;3229;42.674;23.282;2023-04-06T10:56:25;94219.59;;;19.12;36.00
6393;BME280;3229;42.674;23.282;2023-04-06T10:58:54;94217.22;;;19.11;36.01
6393;BME280;3229;42.674;23.282;2023-04-06T11:01:23;94214.63;;;19.17;36.05
6393;BME280;3229;42.674;23.282;2023-04-06T11:03:51;94216.78;;;19.20;36.11
6393;BME280;3229;42.674;23.282;2023-04-06T11:06:19;94207.22;;;19.21;35.80
6393;BME280;3229;42.674;23.282;2023-04-06T11:08:47;94203.63;;;19.28;35.93
6393;BME280;3229;42.674;23.282;2023-04-06T11:11:15;94198.63;;;19.34;35.84
6393;BME280;3229;42.674;23.282;2023-04-06T11:13:45;94192.03;;;19.38;35.64
6393;BME280;3229;42.674;23.282;2023-04-06T11:16:13;94174.53;;;19.26;35.76
6393;BME280;3229;42.674;23.282;2023-04-06T11:18:47;94197.03;;;19.39;35.69
6393;BME280;3229;42.674;23.282;2023-04-06T11:21:15;94199.97;;;19.43;35.53
6393;BME280;3229;42.674;23.282;2023-04-06T11:23:42;94184.41;;;19.43;35.52
6393;BME280;3229;42.674;23.282;2023-04-06T11:26:12;94185.03;;;19.45;35.53
6393;BME280;3229;42.674;23.282;2023-04-06T11:28:40;94189.81;;;19.48;35.53
6393;BME280;3229;42.674;23.282;2023-04-06T11:31:07;94179.63;;;19.46;35.43
6393;BME280;3229;42.674;23.282;2023-04-06T11:33:37;94181.03;;;19.49;35.52
6393;BME280;3229;42.674;23.282;2023-04-06T11:36:06;94182.44;;;19.45;35.45
6393;BME280;3229;42.674;23.282;2023-04-06T11:38:33;94177.06;;;19.40;35.45
6393;BME280;3229;42.674;23.282;2023-04-06T11:41:01;94177.06;;;19.33;35.59
6393;BME280;3229;42.674;23.282;2023-04-06T11:43:30;94184.69;;;19.28;35.55
6393;BME280;3229;42.674;23.282;2023-04-06T11:46:01;94172.31;;;19.17;35.51
6393;BME280;3229;42.674;23.282;2023-04-06T11:48:29;94171.56;;;19.10;35.67
6393;BME280;3229;42.674;23.282;2023-04-06T11:50:56;94173.75;;;18.99;35.76
6393;BME280;3229;42.674;23.282;2023-04-06T11:53:24;94166.00;;;18.86;35.70
6393;BME280;3229;42.674;23.282;2023-04-06T11:55:51;94164.22;;;18.73;35.83
6393;BME280;3229;42.674;23.282;2023-04-06T11:58:18;94169.19;;;18.62;35.95
6393;BME280;3229;42.674;23.282;2023-04-06T12:00:46;94168.19;;;18.49;36.09
6393;BME280;3229;42.674;23.282;2023-04-06T12:03:14;94173.97;;;18.38;36.01
6393;BME280;3229;42.674;23.282;2023-04-06T12:05:41;94139.50;;;18.11;36.24
6393;BME280;3229;42.674;23.282;2023-04-06T12:08:08;94157.63;;;18.18;36.05
6393;BME280;3229;42.674;23.282;2023-04-06T12:10:35;94162.00;;;18.11;36.23
6393;BME280;3229;42.674;23.282;2023-04-06T12:13:02;94165.34;;;18.04;36.19
6393;BME280;3229;42.674;23.282;2023-04-06T12:15:29;94167.16;;;17.97;36.31
6393;BME280;3229;42.674;23.282;2023-04-06T12:17:57;94162.16;;;17.89;36.29
6393;BME280;3229;42.674;23.282;2023-04-06T12:20:24;94165.72;;;17.82;36.38
6393;BME280;3229;42.674;23.282;2023-04-06T12:22:51;94160.69;;;17.73;36.42
6393;BME280;3229;42.674;23.282;2023-04-06T12:25:18;94164.22;;;17.66;36.46
6393;BME280;3229;42.674;23.282;2023-04-06T12:27:45;94165.22;;;17.58;36.61
6393;BME280;3229;42.674;23.282;2023-04-06T12:30:12;94146.88;;;17.46;36.71
6393;BME280;3229;42.674;23.282;2023-04-06T12:32:39;94157.00;;;17.41;36.73
6393;BME280;3229;42.674;23.282;2023-04-06T12:35:08;94160.34;;;17.35;36.77
6393;BME280;3229;42.674;23.282;2023-04-06T12:37:37;94157.50;;;17.23;37.08
6393;BME280;3229;42.674;23.282;2023-04-06T12:40:05;94161.19;;;17.08;37.01
6393;BME280;3229;42.674;23.282;2023-04-06T12:42:32;94158.34;;;16.96;37.04
6393;BME280;3229;42.674;23.282;2023-04-06T12:44:59;94144.34;;;16.84;37.11
6393;BME280;3229;42.674;23.282;2023-04-06T12:47:26;94133.38;;;16.75;37.25
6393;BME280;3229;42.674;23.282;2023-04-06T12:49:53;94149.50;;;16.77;37.40
6393;BME280;3229;42.674;23.282;2023-04-06T12:52:22;94140.16;;;16.76;37.23
6393;BME280;3229;42.674;23.282;2023-04-06T12:54:49;94144.53;;;16.75;37.18
6393;BME280;3229;42.674;23.282;2023-04-06T12:57:16;94127.97;;;16.70;37.20
6393;BME280;3229;42.674;23.282;2023-04-06T12:59:43;94143.44;;;16.70;37.32
6393;BME280;3229;42.674;23.282;2023-04-06T13:02:11;94139.66;;;16.66;37.42
6393;BME280;3229;42.674;23.282;2023-04-06T13:04:38;94117.88;;;16.47;37.33
6393;BME280;3229;42.674;23.282;2023-04-06T13:07:05;94147.50;;;16.51;37.43
6393;BME280;3229;42.674;23.282;2023-04-06T13:09:33;94147.63;;;16.43;37.36
6393;BME280;3229;42.674;23.282;2023-04-06T13:12:00;94135.06;;;16.33;37.33
6393;BME280;3229;42.674;23.282;2023-04-06T13:14:27;94140.34;;;16.25;37.42
6393;BME280;3229;42.674;23.282;2023-04-06T13:16:54;94066.81;;;15.65;37.41